インディラ・ガンディー国際空港の過去48時間の天気

インディラ・ガンディー国際空港 (Delhi / Palam)

現在時刻: 9/16 08:41 IST (9/16 03:11 UTC) 以下の時間は現地時間です。

過去48時間のMETAR気象情報
時間 風向 風速(m/s) 視程 気温(℃) 湿度(%) 気圧(hPa) 天気現象
16 08:30 南西 2 2500m 30 79 1006 もや
16 08:00 南南西 2 2500m 29 84 1005 もや
16 07:30 南西 2 2500m 28 89 1005 もや
16 07:00 静穏 0 2500m 28 89 1005 もや
16 06:30 静穏 0 2500m 28 89 1005 もや
16 06:00 静穏 0 2500m 28 89 1004 もや
16 05:30 南西 2 3000m 28 89 1004 もや
16 05:00 静穏 0 3000m 28 89 1004 もや
16 04:30 静穏 0 3200m 28 89 1004 もや
16 04:00 静穏 0 3200m 28 89 1003 もや
16 03:30 静穏 0 3500m 28 89 1003 もや
16 03:00 静穏 0 3500m 28 89 1003 もや
16 02:30 静穏 0 3500m 28 89 1004 もや
16 02:00 静穏 0 3500m 29 84 1004 もや
16 01:30 静穏 0 3500m 29 84 1004 もや
16 01:00 静穏 0 3500m 29 84 1004 もや
16 00:30 静穏 0 3500m 29 84 1005 もや
16 00:00 東南東 2 3500m 29 84 1005 もや
15 23:30 南東 2 3500m 29 84 1005 もや
15 23:00 南南東 3 3500m 29 84 1005 もや
15 22:30 東南東 2 3500m 30 79 1005 もや
15 22:00 東南東 3 3500m 30 79 1006 もや
15 21:30 南南東 3 3500m 30 75 1005 煙霧
15 21:00 南東 2 3500m 30 75 1005 煙霧
15 20:30 南東 2 3500m 30 75 1005 煙霧
15 20:00 南南東 3 3500m 31 70 1004 煙霧
15 19:30 南南東 3 3200m 31 70 1004 煙霧
15 19:00 南南東 2 3200m 31 70 1004 煙霧
15 18:30 東南東 2 3000m 31 70 1004 煙霧
15 18:00 東南東 2 3000m 31 70 1003 煙霧
15 17:30 東南東 3 3000m 32 67 1003 煙霧
15 17:00 東南東 3 2800m 32 67 1003 煙霧
15 16:30 東北東 2 2500m 32 67 1003 煙霧
15 16:00 東北東 3 2500m 32 67 1003 煙霧
15 15:30 東北東 3 2500m 33 63 1003 煙霧
15 15:00 東北東 2 2500m 32 67 1004 煙霧
15 14:00 東北東 2 2500m 31 75 1005 煙霧
15 13:30 東北東 2 2500m 31 75 1005 もや
15 13:00 東北東 2 2500m 29 84 1006 もや
15 12:30 2 2500m 28 89 1006 弱い雨
15 12:00 北北東 3 2500m 29 84 1006 霧雨
15 11:30 北東 4 3000m 30 75 1007 煙霧
15 11:00 北東 2 3000m 30 75 1007 煙霧
15 10:30 2 3000m 30 75 1007 煙霧
15 10:00 東北東 2 3000m 29 79 1007 もや
15 09:30 東南東 2 3000m 29 79 1007 もや
15 09:00 2 3000m 29 79 1007 もや
15 08:30 東南東 3 3000m 28 84 1007 もや
15 08:00 東南東 3 3000m 28 84 1007 もや
15 07:30 東南東 3 3000m 28 84 1006 もや
15 07:00 東南東 3 3000m 28 84 1006 もや
15 06:30 3 3000m 28 84 1006 もや
15 06:00 2 3000m 28 84 1006 もや
15 05:30 2 3000m 28 84 1006 もや
15 05:00 3 3000m 28 84 1005 もや
15 04:30 3 3000m 28 84 1005 もや
15 04:00 3 3000m 28 84 1005 もや
15 03:30 東南東 2 3000m 28 84 1005 もや
15 03:00 東南東 3 3000m 28 84 1005 もや
15 02:30 4 3000m 29 79 1005 もや
15 02:00 東南東 3 3000m 29 79 1005 もや
15 01:30 東南東 4 3000m 29 79 1005 もや
15 01:00 東南東 3 3000m 29 79 1005 もや
15 00:30 東南東 3 3000m 29 79 1006 もや
15 00:00 3 3000m 29 79 1006 もや
14 23:30 4 3000m 29 74 1006 煙霧
14 23:00 4 3000m 29 74 1006 煙霧
14 22:30 3 3000m 29 74 1006 煙霧
14 22:00 4 3000m 30 70 1007 煙霧
14 21:30 3 3000m 30 75 1006 煙霧
14 21:00 3 3000m 31 70 1006 煙霧
14 20:30 3 3000m 31 70 1006 煙霧
14 20:00 3 3000m 31 70 1005 煙霧
14 19:30 4 3000m 31 70 1005 煙霧
14 19:00 東南東 4 3000m 32 67 1004 煙霧
14 18:30 東南東 4 3200m 33 63 1004 煙霧
14 18:00 3 3200m 33 59 1003 煙霧
14 17:30 東北東 3 3200m 33 59 1003 煙霧
14 17:00 東北東 4 3500m 34 56 1003 煙霧
14 16:30 東北東 4 3500m 33 59 1003 煙霧
14 16:00 東北東 5 3500m 33 59 1003 煙霧
14 15:30 東北東 4 3500m 33 59 1003 煙霧
14 15:00 東北東 4 3500m 33 59 1003 煙霧
14 14:30 北東 3 4000m 33 59 1004 煙霧
14 14:00 東北東 4 4000m 33 59 1004 煙霧
14 13:30 3 4000m 33 63 1005 煙霧
14 13:00 北東 4 4000m 33 63 1005 煙霧
14 12:30 3 4000m 33 63 1006 煙霧
14 12:00 東北東 3 4000m 32 67 1006 煙霧
14 11:30 3 4000m 32 67 1007 煙霧
14 11:00 東北東 3 4000m 31 70 1007 煙霧
14 10:30 3 3500m 31 70 1007 もや
14 10:00 4 3500m 31 70 1007 もや
14 09:30 4 3500m 30 75 1007 もや
14 09:00 4 3500m 30 79 1007 もや
VIDP 160300Z 22004KT 2500 BR FEW040 SCT100 30/26 Q1006 NOSIG
VIDP 160230Z 21004KT 2500 BR FEW040 SCT100 29/26 Q1005 NOSIG
VIDP 160200Z 23003KT 2500 BR FEW040 SCT100 28/26 Q1005 NOSIG
VIDP 160130Z 00000KT 2500 BR FEW040 SCT100 28/26 Q1005 NOSIG
VIDP 160100Z 00000KT 2500 BR FEW040 SCT100 28/26 Q1005 NOSIG
VIDP 160030Z 00000KT 2500 BR FEW100 28/26 Q1004 NOSIG
VIDP 160000Z 22003KT 3000 BR FEW100 28/26 Q1004 NOSIG
VIDP 152330Z 00000KT 3000 BR FEW100 28/26 Q1004 NOSIG
VIDP 152300Z 00000KT 3200 BR FEW100 28/26 Q1004 BECMG 3000 BR
VIDP 152230Z 00000KT 3200 BR FEW100 28/26 Q1003 NOSIG
VIDP 152200Z 00000KT 3500 BR FEW035 SCT100 28/26 Q1003 NOSIG
VIDP 152130Z 00000KT 3500 BR FEW035 SCT100 28/26 Q1003 NOSIG
VIDP 152100Z 00000KT 3500 BR FEW035 SCT100 28/26 Q1004 NOSIG
VIDP 152030Z 00000KT 3500 BR FEW035 SCT100 29/26 Q1004 NOSIG
VIDP 152000Z 00000KT 3500 BR FEW035 SCT100 29/26 Q1004 NOSIG
VIDP 151930Z 00000KT 3500 BR FEW035 SCT100 29/26 Q1004 NOSIG
VIDP 151900Z 00000KT 3500 BR FEW035 SCT100 29/26 Q1005 NOSIG
VIDP 151830Z 12003KT 3500 BR FEW035 SCT100 29/26 Q1005 NOSIG
VIDP 151800Z 13004KT 3500 BR FEW035 SCT100 29/26 Q1005 NOSIG
VIDP 151730Z 15005KT 3500 BR FEW035 SCT100 29/26 Q1005 NOSIG
VIDP 151700Z 12003KT 3500 BR FEW035 SCT100 30/26 Q1005 NOSIG
VIDP 151630Z 11005KT 3500 BR FEW035 SCT100 30/26 Q1006 NOSIG
VIDP 151600Z 15005KT 3500 HZ FEW035 SCT100 30/25 Q1005 NOSIG
VIDP 151530Z 13004KT 3500 HZ FEW035 SCT100 30/25 Q1005 NOSIG
VIDP 151500Z 14004KT 3500 HZ FEW035 SCT100 30/25 Q1005 NOSIG
VIDP 151430Z 15005KT 3500 HZ FEW035 SCT100 31/25 Q1004 NOSIG
VIDP 151400Z 16005KT 3200 HZ SCT030 BKN100 31/25 Q1004 NOSIG
VIDP 151330Z 15004KT 3200 HZ SCT030 BKN100 31/25 Q1004 NOSIG
VIDP 151300Z 12004KT 3000 HZ SCT030 BKN100 31/25 Q1004 NOSIG
VIDP 151230Z 11004KT 3000 HZ SCT030 BKN100 31/25 Q1003 NOSIG
VIDP 151200Z 11005KT 3000 HZ SCT030 BKN100 32/25 Q1003 NOSIG
VIDP 151130Z 11005KT 2800 HZ SCT030 BKN100 32/25 Q1003 BECMG 3000 HZ
VIDP 151100Z 07004KT 2500 HZ SCT030 FEW035CB BKN100 32/25 Q1003 NOSIG
VIDP 151030Z 07005KT 2500 HZ SCT030 FEW035CB BKN100 32/25 Q1003 NOSIG
VIDP 151000Z 06005KT 2500 HZ SCT030 FEW035CB BKN100 33/25 Q1003 NOSIG
VIDP 150930Z 06004KT 2500 HZ SCT030 FEW035CB BKN100 32/25 Q1004 NOSIG
VIDP 150830Z 06003KT 2500 HZ SCT030 FEW035CB BKN100 31/26 Q1005 TEMPO 1500 TSRA
VIDP 150800Z 06003KT 2500 BR SCT030 FEW035CB BKN100 31/26 Q1005 TEMPO 1500 TSRA
VIDP 150730Z 06004KT 2500 BR SCT030 FEW035CB BKN100 29/26 Q1006 TEMPO 1500 TSRA
VIDP 150700Z 09003KT 2500 -RA SCT030 FEW035CB BKN100 28/26 Q1006 TEMPO 1500 TSRA
VIDP 150630Z 03006KT 2500 DZ SCT030 FEW035CB BKN100 29/26 Q1006 TEMPO 1500 TSRA
VIDP 150600Z 04008KT 3000 HZ SCT030 BKN100 30/25 Q1007 NOSIG
VIDP 150530Z 04003KT 3000 HZ SCT030 BKN100 30/25 Q1007 NOSIG
VIDP 150500Z 08003KT 3000 HZ SCT030 BKN100 30/25 Q1007 NOSIG
VIDP 150430Z 07003KT 3000 BR SCT030 BKN100 29/25 Q1007 NOSIG
VIDP 150400Z 11003KT 3000 BR SCT030 BKN100 29/25 Q1007 NOSIG
VIDP 150330Z 09004KT 3000 BR SCT030 BKN100 29/25 Q1007 NOSIG
VIDP 150300Z 11006KT 3000 BR SCT030 BKN100 28/25 Q1007 NOSIG
VIDP 150230Z 11005KT 3000 BR SCT030 SCT100 28/25 Q1007 NOSIG
VIDP 150200Z 11005KT 3000 BR SCT030 SCT100 28/25 Q1006 NOSIG
VIDP 150130Z 11006KT 3000 BR SCT030 SCT100 28/25 Q1006 NOSIG
VIDP 150100Z 10005KT 3000 BR SCT030 SCT100 28/25 Q1006 NOSIG
VIDP 150030Z 09003KT 3000 BR SCT030 SCT100 28/25 Q1006 NOSIG
VIDP 150000Z 10004KT 3000 BR SCT030 SCT100 28/25 Q1006 NOSIG
VIDP 142330Z 10005KT 3000 BR SCT030 SCT100 28/25 Q1005 NOSIG
VIDP 142300Z 10005KT 3000 BR SCT030 SCT100 28/25 Q1005 NOSIG
VIDP 142230Z 09005KT 3000 BR SCT030 SCT100 28/25 Q1005 NOSIG
VIDP 142200Z 11004KT 3000 BR SCT030 SCT100 28/25 Q1005 NOSIG
VIDP 142130Z 11005KT 3000 BR SCT030 SCT100 28/25 Q1005 NOSIG
VIDP 142100Z 10007KT 3000 BR SCT030 SCT100 29/25 Q1005 NOSIG
VIDP 142030Z 11006KT 3000 BR SCT030 SCT100 29/25 Q1005 NOSIG
VIDP 142000Z 11007KT 3000 BR FEW030 SCT100 29/25 Q1005 NOSIG
VIDP 141930Z 11006KT 3000 BR FEW030 SCT100 29/25 Q1005 NOSIG
VIDP 141900Z 11006KT 3000 BR FEW030 SCT100 29/25 Q1006 NOSIG
VIDP 141830Z 09006KT 3000 BR FEW030 SCT100 29/25 Q1006 NOSIG
VIDP 141800Z 10007KT 3000 HZ FEW030 SCT100 29/24 Q1006 NOSIG
VIDP 141730Z 08007KT 3000 HZ FEW035 SCT100 29/24 Q1006 NOSIG
VIDP 141700Z 09005KT 3000 HZ SCT035 BKN100 29/24 Q1006 NOSIG
VIDP 141630Z 10007KT 3000 HZ SCT030 FEW035CB BKN100 30/24 Q1007 NOSIG
VIDP 141600Z 09006KT 3000 HZ SCT030 FEW035CB BKN100 30/25 Q1006 NOSIG
VIDP 141530Z 09006KT 3000 HZ SCT030 FEW035CB BKN100 31/25 Q1006 NOSIG
VIDP 141500Z 10006KT 3000 HZ SCT030 FEW035CB BKN100 31/25 Q1006 NOSIG
VIDP 141430Z 09006KT 3000 HZ SCT030 FEW035CB BKN100 31/25 Q1005 NOSIG
VIDP 141400Z 10007KT 3000 HZ SCT030 FEW035CB BKN100 31/25 Q1005 NOSIG
VIDP 141330Z 11007KT 3000 HZ SCT030 FEW035CB BKN100 32/25 Q1004 NOSIG
VIDP 141300Z 11008KT 3200 HZ SCT030 FEW035CB BKN080 33/25 Q1004 BECMG 3000 HZ
VIDP 141230Z 08006KT 3200 HZ SCT030 FEW035CB BKN080 33/24 Q1003 NOSIG
VIDP 141200Z 06006KT 3200 HZ SCT030 FEW035CB BKN080 33/24 Q1003 NOSIG
VIDP 141130Z 06007KT 3500 HZ SCT030 FEW035CB BKN080 34/24 Q1003 NOSIG
VIDP 141100Z 06007KT 3500 HZ SCT030 FEW035CB BKN080 33/24 Q1003 NOSIG
VIDP 141030Z 06009KT 3500 HZ SCT030 FEW035CB BKN080 33/24 Q1003 NOSIG
VIDP 141000Z 06008KT 3500 HZ SCT030 FEW035CB BKN080 33/24 Q1003 NOSIG
VIDP 140930Z 06008KT 3500 HZ SCT030 FEW035CB BKN080 33/24 Q1003 NOSIG
VIDP 140900Z 04005KT 4000 HZ SCT030 FEW035CB BKN080 33/24 Q1004 NOSIG
VIDP 140830Z 06007KT 4000 HZ SCT030 FEW035CB BKN080 33/24 Q1004 NOSIG
VIDP 140800Z 08006KT 4000 HZ SCT030 FEW035CB BKN080 33/25 Q1005 NOSIG
VIDP 140730Z 05007KT 4000 HZ SCT030 FEW035CB BKN080 33/25 Q1005 NOSIG
VIDP 140700Z 08005KT 4000 HZ SCT030 FEW035CB BKN080 33/25 Q1006 NOSIG
VIDP 140630Z 07005KT 4000 HZ SCT030 BKN080 32/25 Q1006 NOSIG
VIDP 140600Z 09005KT 4000 HZ SCT030 BKN080 32/25 Q1007 NOSIG
VIDP 140530Z 07005KT 4000 HZ SCT030 BKN080 31/25 Q1007 NOSIG
VIDP 140500Z 09006KT 3500 BR SCT030 BKN080 31/25 Q1007 NOSIG
VIDP 140430Z 10007KT 3500 BR SCT030 BKN080 31/25 Q1007 NOSIG
VIDP 140400Z 08007KT 3500 BR SCT030 BKN080 30/25 Q1007 NOSIG
VIDP 140330Z 08008KT 3500 BR SCT030 BKN080 30/26 Q1007 NOSIG